sensor_id;sensor_type;location;lat;lon;timestamp;temperature;humidity
4896;DHT22;2463;49.948;8.472;2022-07-10T00:00:04;17.50;99.90
4896;DHT22;2463;49.948;8.472;2022-07-10T00:02:31;17.50;99.90
4896;DHT22;2463;49.948;8.472;2022-07-10T00:04:58;17.40;99.90
4896;DHT22;2463;49.948;8.472;2022-07-10T00:07:24;17.40;99.90
4896;DHT22;2463;49.948;8.472;2022-07-10T00:09:51;17.40;99.90
4896;DHT22;2463;49.948;8.472;2022-07-10T00:12:18;17.30;99.90
4896;DHT22;2463;49.948;8.472;2022-07-10T00:14:44;17.30;99.90
4896;DHT22;2463;49.948;8.472;2022-07-10T00:17:11;17.30;99.90
4896;DHT22;2463;49.948;8.472;2022-07-10T00:19:38;17.20;99.90
4896;DHT22;2463;49.948;8.472;2022-07-10T00:22:05;17.20;99.90
4896;DHT22;2463;49.948;8.472;2022-07-10T00:24:31;17.20;99.90
4896;DHT22;2463;49.948;8.472;2022-07-10T00:26:58;17.10;99.90
4896;DHT22;2463;49.948;8.472;2022-07-10T00:29:25;17.10;99.90
4896;DHT22;2463;49.948;8.472;2022-07-10T00:31:52;17.00;99.90
4896;DHT22;2463;49.948;8.472;2022-07-10T00:34:19;17.00;99.90
4896;DHT22;2463;49.948;8.472;2022-07-10T00:36:45;16.90;99.90
4896;DHT22;2463;49.948;8.472;2022-07-10T00:39:13;16.80;99.90
4896;DHT22;2463;49.948;8.472;2022-07-10T00:41:40;16.80;99.90
4896;DHT22;2463;49.948;8.472;2022-07-10T00:44:06;16.70;99.90
4896;DHT22;2463;49.948;8.472;2022-07-10T00:46:33;16.70;99.90
4896;DHT22;2463;49.948;8.472;2022-07-10T00:49:01;16.70;99.90
4896;DHT22;2463;49.948;8.472;2022-07-10T00:51:29;16.60;99.90
4896;DHT22;2463;49.948;8.472;2022-07-10T00:53:57;16.70;99.90
4896;DHT22;2463;49.948;8.472;2022-07-10T00:56:26;16.60;99.90
4896;DHT22;2463;49.948;8.472;2022-07-10T00:58:53;16.60;99.90
4896;DHT22;2463;49.948;8.472;2022-07-10T01:01:20;16.60;99.90
4896;DHT22;2463;49.948;8.472;2022-07-10T01:03:50;16.50;99.90
4896;DHT22;2463;49.948;8.472;2022-07-10T01:06:17;16.50;99.90
4896;DHT22;2463;49.948;8.472;2022-07-10T01:08:45;16.50;99.90
4896;DHT22;2463;49.948;8.472;2022-07-10T01:11:13;16.50;99.90
4896;DHT22;2463;49.948;8.472;2022-07-10T01:13:42;16.50;99.90
4896;DHT22;2463;49.948;8.472;2022-07-10T01:16:09;16.50;99.90
4896;DHT22;2463;49.948;8.472;2022-07-10T01:18:36;16.60;99.90
4896;DHT22;2463;49.948;8.472;2022-07-10T01:21:04;16.50;99.90
4896;DHT22;2463;49.948;8.472;2022-07-10T01:23:31;16.50;99.90
4896;DHT22;2463;49.948;8.472;2022-07-10T01:25:58;16.50;99.90
4896;DHT22;2463;49.948;8.472;2022-07-10T01:28:25;16.50;99.90
4896;DHT22;2463;49.948;8.472;2022-07-10T01:30:54;16.40;99.90
4896;DHT22;2463;49.948;8.472;2022-07-10T01:33:21;16.40;99.90
4896;DHT22;2463;49.948;8.472;2022-07-10T01:35:48;16.40;99.90
4896;DHT22;2463;49.948;8.472;2022-07-10T01:38:14;16.40;99.90
4896;DHT22;2463;49.948;8.472;2022-07-10T01:40:41;16.40;99.90
4896;DHT22;2463;49.948;8.472;2022-07-10T01:43:08;16.40;99.90
4896;DHT22;2463;49.948;8.472;2022-07-10T01:45:35;16.30;99.90
4896;DHT22;2463;49.948;8.472;2022-07-10T01:48:02;16.30;99.90
4896;DHT22;2463;49.948;8.472;2022-07-10T01:50:28;16.20;99.90
4896;DHT22;2463;49.948;8.472;2022-07-10T01:52:55;16.20;99.90
4896;DHT22;2463;49.948;8.472;2022-07-10T01:55:22;16.30;99.90
4896;DHT22;2463;49.948;8.472;2022-07-10T01:57:49;16.30;99.90
4896;DHT22;2463;49.948;8.472;2022-07-10T02:00:15;16.30;99.90
4896;DHT22;2463;49.948;8.472;2022-07-10T02:02:42;16.30;99.90
4896;DHT22;2463;49.948;8.472;2022-07-10T02:05:29;16.30;99.90
4896;DHT22;2463;49.948;8.472;2022-07-10T02:07:56;16.20;99.90
4896;DHT22;2463;49.948;8.472;2022-07-10T02:10:23;16.20;99.90
4896;DHT22;2463;49.948;8.472;2022-07-10T02:12:49;16.20;99.90
4896;DHT22;2463;49.948;8.472;2022-07-10T02:15:16;16.10;99.90
4896;DHT22;2463;49.948;8.472;2022-07-10T02:17:43;16.20;99.90
4896;DHT22;2463;49.948;8.472;2022-07-10T02:20:10;16.20;99.90
4896;DHT22;2463;49.948;8.472;2022-07-10T02:22:37;16.20;99.90
4896;DHT22;2463;49.948;8.472;2022-07-10T02:25:04;16.10;99.90
4896;DHT22;2463;49.948;8.472;2022-07-10T02:27:31;16.10;99.90
4896;DHT22;2463;49.948;8.472;2022-07-10T02:29:58;16.10;99.90
4896;DHT22;2463;49.948;8.472;2022-07-10T02:32:24;16.00;99.90
4896;DHT22;2463;49.948;8.472;2022-07-10T02:34:51;16.00;99.90
4896;DHT22;2463;49.948;8.472;2022-07-10T02:37:18;16.00;99.90
4896;DHT22;2463;49.948;8.472;2022-07-10T02:39:45;16.00;99.90
4896;DHT22;2463;49.948;8.472;2022-07-10T02:42:11;15.90;99.90
4896;DHT22;2463;49.948;8.472;2022-07-10T02:44:38;15.90;99.90
4896;DHT22;2463;49.948;8.472;2022-07-10T02:47:05;15.90;99.90
4896;DHT22;2463;49.948;8.472;2022-07-10T02:49:31;15.90;99.90
4896;DHT22;2463;49.948;8.472;2022-07-10T02:51:59;15.80;99.90
4896;DHT22;2463;49.948;8.472;2022-07-10T02:54:26;15.90;99.90
4896;DHT22;2463;49.948;8.472;2022-07-10T02:56:53;15.80;99.90
4896;DHT22;2463;49.948;8.472;2022-07-10T02:59:19;15.80;99.90
4896;DHT22;2463;49.948;8.472;2022-07-10T03:01:46;15.80;99.90
4896;DHT22;2463;49.948;8.472;2022-07-10T03:04:13;15.80;99.90
4896;DHT22;2463;49.948;8.472;2022-07-10T03:06:40;15.90;99.90
4896;DHT22;2463;49.948;8.472;2022-07-10T03:09:06;15.90;99.90
4896;DHT22;2463;49.948;8.472;2022-07-10T03:11:33;16.00;99.90
4896;DHT22;2463;49.948;8.472;2022-07-10T03:14:00;16.00;99.90
4896;DHT22;2463;49.948;8.472;2022-07-10T03:16:27;16.00;99.90
4896;DHT22;2463;49.948;8.472;2022-07-10T03:18:53;16.00;99.90
4896;DHT22;2463;49.948;8.472;2022-07-10T03:21:20;16.00;99.90
4896;DHT22;2463;49.948;8.472;2022-07-10T03:23:47;16.10;99.90
4896;DHT22;2463;49.948;8.472;2022-07-10T03:26:14;16.00;99.90
4896;DHT22;2463;49.948;8.472;2022-07-10T03:28:40;15.90;99.90
4896;DHT22;2463;49.948;8.472;2022-07-10T03:31:08;16.00;99.90
4896;DHT22;2463;49.948;8.472;2022-07-10T03:33:35;16.00;99.90
4896;DHT22;2463;49.948;8.472;2022-07-10T03:36:01;15.90;99.90
4896;DHT22;2463;49.948;8.472;2022-07-10T03:38:29;15.80;99.90
4896;DHT22;2463;49.948;8.472;2022-07-10T03:40:56;15.80;99.90
4896;DHT22;2463;49.948;8.472;2022-07-10T03:43:23;15.80;99.90
4896;DHT22;2463;49.948;8.472;2022-07-10T03:45:51;15.70;99.90
4896;DHT22;2463;49.948;8.472;2022-07-10T03:48:18;15.70;99.90
4896;DHT22;2463;49.948;8.472;2022-07-10T03:50:44;15.70;99.90
4896;DHT22;2463;49.948;8.472;2022-07-10T03:53:11;15.70;99.90
4896;DHT22;2463;49.948;8.472;2022-07-10T03:55:38;15.70;99.90
4896;DHT22;2463;49.948;8.472;2022-07-10T03:58:05;15.70;99.90
4896;DHT22;2463;49.948;8.472;2022-07-10T04:00:32;15.70;99.90
4896;DHT22;2463;49.948;8.472;2022-07-10T04:03:06;15.70;99.90
4896;DHT22;2463;49.948;8.472;2022-07-10T04:05:34;15.70;99.90
4896;DHT22;2463;49.948;8.472;2022-07-10T04:08:02;15.70;99.90
4896;DHT22;2463;49.948;8.472;2022-07-10T04:10:30;15.80;99.90
4896;DHT22;2463;49.948;8.472;2022-07-10T04:12:58;15.80;99.90
4896;DHT22;2463;49.948;8.472;2022-07-10T04:15:25;15.90;99.90
4896;DHT22;2463;49.948;8.472;2022-07-10T04:17:51;15.90;99.90
4896;DHT22;2463;49.948;8.472;2022-07-10T04:20:19;15.90;99.90
4896;DHT22;2463;49.948;8.472;2022-07-10T04:22:46;15.90;99.90
4896;DHT22;2463;49.948;8.472;2022-07-10T04:25:13;15.80;99.90
4896;DHT22;2463;49.948;8.472;2022-07-10T04:27:40;15.80;99.90
4896;DHT22;2463;49.948;8.472;2022-07-10T04:30:07;15.70;99.90
4896;DHT22;2463;49.948;8.472;2022-07-10T04:32:34;15.90;99.90
4896;DHT22;2463;49.948;8.472;2022-07-10T04:35:01;15.70;99.90
4896;DHT22;2463;49.948;8.472;2022-07-10T04:37:28;15.70;99.90
4896;DHT22;2463;49.948;8.472;2022-07-10T04:39:56;15.80;99.90
4896;DHT22;2463;49.948;8.472;2022-07-10T04:42:24;15.80;99.90
4896;DHT22;2463;49.948;8.472;2022-07-10T04:44:52;15.80;99.90
4896;DHT22;2463;49.948;8.472;2022-07-10T04:47:19;15.80;99.90
4896;DHT22;2463;49.948;8.472;2022-07-10T04:49:46;15.80;99.90
4896;DHT22;2463;49.948;8.472;2022-07-10T04:52:12;15.80;99.90
4896;DHT22;2463;49.948;8.472;2022-07-10T04:54:39;15.80;99.90
4896;DHT22;2463;49.948;8.472;2022-07-10T04:57:06;15.70;99.90
4896;DHT22;2463;49.948;8.472;2022-07-10T04:59:32;15.70;99.90
4896;DHT22;2463;49.948;8.472;2022-07-10T05:01:59;15.60;99.90
4896;DHT22;2463;49.948;8.472;2022-07-10T05:04:26;15.60;99.90
4896;DHT22;2463;49.948;8.472;2022-07-10T05:06:53;15.60;99.90
4896;DHT22;2463;49.948;8.472;2022-07-10T05:09:19;15.60;99.90
4896;DHT22;2463;49.948;8.472;2022-07-10T05:11:46;15.60;99.90
4896;DHT22;2463;49.948;8.472;2022-07-10T05:14:13;15.60;99.90
4896;DHT22;2463;49.948;8.472;2022-07-10T05:16:40;15.60;99.90
4896;DHT22;2463;49.948;8.472;2022-07-10T05:19:07;15.60;99.90
4896;DHT22;2463;49.948;8.472;2022-07-10T05:21:34;15.60;99.90
4896;DHT22;2463;49.948;8.472;2022-07-10T05:24:00;15.60;99.90
4896;DHT22;2463;49.948;8.472;2022-07-10T05:26:27;15.60;99.90
4896;DHT22;2463;49.948;8.472;2022-07-10T05:28:54;15.60;99.90
4896;DHT22;2463;49.948;8.472;2022-07-10T05:31:21;15.60;99.90
4896;DHT22;2463;49.948;8.472;2022-07-10T05:33:48;15.60;99.90
4896;DHT22;2463;49.948;8.472;2022-07-10T05:36:14;15.60;99.90
4896;DHT22;2463;49.948;8.472;2022-07-10T05:38:41;15.60;99.90
4896;DHT22;2463;49.948;8.472;2022-07-10T05:41:08;15.60;99.90
4896;DHT22;2463;49.948;8.472;2022-07-10T05:43:35;15.70;99.90
4896;DHT22;2463;49.948;8.472;2022-07-10T05:46:02;15.70;99.90
4896;DHT22;2463;49.948;8.472;2022-07-10T05:48:29;15.70;99.90
4896;DHT22;2463;49.948;8.472;2022-07-10T05:50:56;15.80;99.90
4896;DHT22;2463;49.948;8.472;2022-07-10T05:53:43;15.80;99.90
4896;DHT22;2463;49.948;8.472;2022-07-10T05:56:11;15.90;99.90
4896;DHT22;2463;49.948;8.472;2022-07-10T05:58:37;16.00;99.90
4896;DHT22;2463;49.948;8.472;2022-07-10T06:01:05;16.10;99.90
4896;DHT22;2463;49.948;8.472;2022-07-10T06:03:31;16.20;99.90
4896;DHT22;2463;49.948;8.472;2022-07-10T06:05:58;16.30;99.90
4896;DHT22;2463;49.948;8.472;2022-07-10T06:08:26;16.30;99.90
4896;DHT22;2463;49.948;8.472;2022-07-10T06:10:53;16.50;99.90
4896;DHT22;2463;49.948;8.472;2022-07-10T06:13:20;16.60;99.90
4896;DHT22;2463;49.948;8.472;2022-07-10T06:15:47;16.70;99.90
4896;DHT22;2463;49.948;8.472;2022-07-10T06:18:14;16.80;99.90
4896;DHT22;2463;49.948;8.472;2022-07-10T06:20:41;16.90;99.90
4896;DHT22;2463;49.948;8.472;2022-07-10T06:23:07;17.00;99.90
4896;DHT22;2463;49.948;8.472;2022-07-10T06:25:34;17.20;99.90
4896;DHT22;2463;49.948;8.472;2022-07-10T06:28:01;17.40;99.90
4896;DHT22;2463;49.948;8.472;2022-07-10T06:30:27;17.70;99.90
4896;DHT22;2463;49.948;8.472;2022-07-10T06:32:54;18.10;99.90
4896;DHT22;2463;49.948;8.472;2022-07-10T06:35:21;18.80;99.90
4896;DHT22;2463;49.948;8.472;2022-07-10T06:37:48;19.40;99.90
4896;DHT22;2463;49.948;8.472;2022-07-10T06:40:14;19.80;99.90
4896;DHT22;2463;49.948;8.472;2022-07-10T06:42:41;20.00;99.90
4896;DHT22;2463;49.948;8.472;2022-07-10T06:45:10;20.70;99.90
4896;DHT22;2463;49.948;8.472;2022-07-10T06:47:37;22.30;99.90
4896;DHT22;2463;49.948;8.472;2022-07-10T06:50:25;24.20;99.90
4896;DHT22;2463;49.948;8.472;2022-07-10T06:52:53;26.30;97.60
4896;DHT22;2463;49.948;8.472;2022-07-10T06:55:19;27.90;95.00
4896;DHT22;2463;49.948;8.472;2022-07-10T06:57:47;28.90;91.40
4896;DHT22;2463;49.948;8.472;2022-07-10T07:00:14;29.90;85.60
4896;DHT22;2463;49.948;8.472;2022-07-10T07:02:42;30.70;81.80
4896;DHT22;2463;49.948;8.472;2022-07-10T07:05:09;31.80;78.00
4896;DHT22;2463;49.948;8.472;2022-07-10T07:07:36;32.30;72.20
4896;DHT22;2463;49.948;8.472;2022-07-10T07:10:04;32.70;69.50
4896;DHT22;2463;49.948;8.472;2022-07-10T07:12:31;33.10;66.40
4896;DHT22;2463;49.948;8.472;2022-07-10T07:14:58;33.00;65.90
4896;DHT22;2463;49.948;8.472;2022-07-10T07:17:25;33.00;63.80
4896;DHT22;2463;49.948;8.472;2022-07-10T07:20:00;32.70;62.80
4896;DHT22;2463;49.948;8.472;2022-07-10T07:22:46;32.20;59.60
4896;DHT22;2463;49.948;8.472;2022-07-10T07:25:32;30.90;60.20
4896;DHT22;2463;49.948;8.472;2022-07-10T07:27:58;29.90;64.00
4896;DHT22;2463;49.948;8.472;2022-07-10T07:30:25;29.30;63.70
4896;DHT22;2463;49.948;8.472;2022-07-10T07:32:52;29.00;66.70
4896;DHT22;2463;49.948;8.472;2022-07-10T07:35:18;28.60;69.60
4896;DHT22;2463;49.948;8.472;2022-07-10T07:37:47;28.20;66.20
4896;DHT22;2463;49.948;8.472;2022-07-10T07:40:23;27.60;66.20
4896;DHT22;2463;49.948;8.472;2022-07-10T07:42:51;26.90;68.20
4896;DHT22;2463;49.948;8.472;2022-07-10T07:45:20;26.30;68.00
4896;DHT22;2463;49.948;8.472;2022-07-10T07:47:52;25.70;68.50
4896;DHT22;2463;49.948;8.472;2022-07-10T07:50:21;25.10;70.50
4896;DHT22;2463;49.948;8.472;2022-07-10T07:52:49;24.50;71.60
4896;DHT22;2463;49.948;8.472;2022-07-10T07:55:18;24.20;71.60
4896;DHT22;2463;49.948;8.472;2022-07-10T07:57:45;23.90;73.80
4896;DHT22;2463;49.948;8.472;2022-07-10T08:00:14;23.60;74.80
4896;DHT22;2463;49.948;8.472;2022-07-10T08:02:41;23.50;77.20
4896;DHT22;2463;49.948;8.472;2022-07-10T08:05:09;23.30;78.70
4896;DHT22;2463;49.948;8.472;2022-07-10T08:07:41;23.20;80.40
4896;DHT22;2463;49.948;8.472;2022-07-10T08:10:11;23.20;79.00
4896;DHT22;2463;49.948;8.472;2022-07-10T08:12:40;23.20;77.00
4896;DHT22;2463;49.948;8.472;2022-07-10T08:15:08;23.20;78.70
4896;DHT22;2463;49.948;8.472;2022-07-10T08:17:36;23.20;79.60
4896;DHT22;2463;49.948;8.472;2022-07-10T08:20:04;23.30;81.70
4896;DHT22;2463;49.948;8.472;2022-07-10T08:22:33;23.60;83.00
4896;DHT22;2463;49.948;8.472;2022-07-10T08:24:59;23.90;84.10
4896;DHT22;2463;49.948;8.472;2022-07-10T08:27:26;24.20;82.30
4896;DHT22;2463;49.948;8.472;2022-07-10T08:29:54;24.20;81.90
4896;DHT22;2463;49.948;8.472;2022-07-10T08:32:21;24.20;80.00
4896;DHT22;2463;49.948;8.472;2022-07-10T08:34:47;24.30;81.60
4896;DHT22;2463;49.948;8.472;2022-07-10T08:37:15;24.20;82.50
4896;DHT22;2463;49.948;8.472;2022-07-10T08:39:42;24.00;82.70
4896;DHT22;2463;49.948;8.472;2022-07-10T08:42:10;24.10;86.10
4896;DHT22;2463;49.948;8.472;2022-07-10T08:44:37;24.30;85.60
4896;DHT22;2463;49.948;8.472;2022-07-10T08:47:04;24.50;83.90
4896;DHT22;2463;49.948;8.472;2022-07-10T08:49:32;24.50;83.20
4896;DHT22;2463;49.948;8.472;2022-07-10T08:54:32;24.60;80.20
4896;DHT22;2463;49.948;8.472;2022-07-10T08:57:01;24.50;78.90
4896;DHT22;2463;49.948;8.472;2022-07-10T08:59:28;24.50;77.80
4896;DHT22;2463;49.948;8.472;2022-07-10T09:01:58;24.30;78.30
4896;DHT22;2463;49.948;8.472;2022-07-10T09:04:26;24.20;80.30
4896;DHT22;2463;49.948;8.472;2022-07-10T09:06:54;24.30;81.80
4896;DHT22;2463;49.948;8.472;2022-07-10T09:09:22;24.30;83.40
4896;DHT22;2463;49.948;8.472;2022-07-10T09:11:58;24.50;85.00
4896;DHT22;2463;49.948;8.472;2022-07-10T09:14:26;24.70;84.00
4896;DHT22;2463;49.948;8.472;2022-07-10T09:17:01;25.00;83.70
4896;DHT22;2463;49.948;8.472;2022-07-10T09:19:28;25.20;81.70
4896;DHT22;2463;49.948;8.472;2022-07-10T09:22:09;25.50;80.20
4896;DHT22;2463;49.948;8.472;2022-07-10T09:24:38;25.80;80.00
4896;DHT22;2463;49.948;8.472;2022-07-10T09:27:05;25.80;79.20
4896;DHT22;2463;49.948;8.472;2022-07-10T09:29:39;26.00;77.20
4896;DHT22;2463;49.948;8.472;2022-07-10T09:32:10;25.80;75.50
4896;DHT22;2463;49.948;8.472;2022-07-10T09:34:42;25.60;75.80
4896;DHT22;2463;49.948;8.472;2022-07-10T09:37:21;25.30;74.50
4896;DHT22;2463;49.948;8.472;2022-07-10T09:39:59;25.10;76.30
4896;DHT22;2463;49.948;8.472;2022-07-10T09:42:34;24.80;78.50
4896;DHT22;2463;49.948;8.472;2022-07-10T09:47:41;25.20;79.80
4896;DHT22;2463;49.948;8.472;2022-07-10T09:53:05;25.30;79.20
4896;DHT22;2463;49.948;8.472;2022-07-10T09:55:35;25.30;81.00
4896;DHT22;2463;49.948;8.472;2022-07-10T09:58:03;25.10;78.40
4896;DHT22;2463;49.948;8.472;2022-07-10T10:00:34;25.00;78.40
4896;DHT22;2463;49.948;8.472;2022-07-10T10:03:03;25.00;82.30
4896;DHT22;2463;49.948;8.472;2022-07-10T10:05:41;25.20;84.60
4896;DHT22;2463;49.948;8.472;2022-07-10T10:08:25;25.50;81.80
4896;DHT22;2463;49.948;8.472;2022-07-10T10:10:53;25.60;79.70
4896;DHT22;2463;49.948;8.472;2022-07-10T10:13:24;25.60;78.80
4896;DHT22;2463;49.948;8.472;2022-07-10T10:15:54;25.60;78.50
4896;DHT22;2463;49.948;8.472;2022-07-10T10:18:23;25.60;79.90
4896;DHT22;2463;49.948;8.472;2022-07-10T10:20:51;25.90;79.40
4896;DHT22;2463;49.948;8.472;2022-07-10T10:23:20;26.40;81.40
4896;DHT22;2463;49.948;8.472;2022-07-10T10:25:55;26.80;76.30
4896;DHT22;2463;49.948;8.472;2022-07-10T10:28:24;27.20;77.40
4896;DHT22;2463;49.948;8.472;2022-07-10T10:30:53;27.40;79.10
4896;DHT22;2463;49.948;8.472;2022-07-10T10:36:10;27.00;73.90
4896;DHT22;2463;49.948;8.472;2022-07-10T10:41:27;26.10;73.20
4896;DHT22;2463;49.948;8.472;2022-07-10T10:46:34;25.20;76.50
4896;DHT22;2463;49.948;8.472;2022-07-10T10:49:05;25.00;77.10
4896;DHT22;2463;49.948;8.472;2022-07-10T11:00:03;24.60;76.80
4896;DHT22;2463;49.948;8.472;2022-07-10T11:02:38;24.60;78.80
4896;DHT22;2463;49.948;8.472;2022-07-10T11:07:57;24.70;78.70
4896;DHT22;2463;49.948;8.472;2022-07-10T11:10:35;24.90;80.20
4896;DHT22;2463;49.948;8.472;2022-07-10T11:13:15;25.20;80.10
4896;DHT22;2463;49.948;8.472;2022-07-10T11:15:44;25.40;78.50
4896;DHT22;2463;49.948;8.472;2022-07-10T11:18:17;25.80;82.90
4896;DHT22;2463;49.948;8.472;2022-07-10T11:20:45;26.40;77.80
4896;DHT22;2463;49.948;8.472;2022-07-10T11:23:16;26.90;77.90
4896;DHT22;2463;49.948;8.472;2022-07-10T11:26:03;27.00;76.30
4896;DHT22;2463;49.948;8.472;2022-07-10T11:29:01;27.30;75.20
4896;DHT22;2463;49.948;8.472;2022-07-10T11:31:29;27.40;73.80
4896;DHT22;2463;49.948;8.472;2022-07-10T11:33:57;27.40;74.60
4896;DHT22;2463;49.948;8.472;2022-07-10T11:36:26;27.30;75.90
4896;DHT22;2463;49.948;8.472;2022-07-10T11:39:06;27.30;73.70
4896;DHT22;2463;49.948;8.472;2022-07-10T11:41:34;27.10;74.20
4896;DHT22;2463;49.948;8.472;2022-07-10T11:44:02;26.90;73.20
4896;DHT22;2463;49.948;8.472;2022-07-10T11:46:32;26.70;74.70
4896;DHT22;2463;49.948;8.472;2022-07-10T11:49:02;26.40;76.50
4896;DHT22;2463;49.948;8.472;2022-07-10T11:54:02;26.30;77.30
4896;DHT22;2463;49.948;8.472;2022-07-10T11:56:36;26.40;80.40
4896;DHT22;2463;49.948;8.472;2022-07-10T11:59:05;26.40;76.40
4896;DHT22;2463;49.948;8.472;2022-07-10T12:01:40;26.40;75.70
4896;DHT22;2463;49.948;8.472;2022-07-10T12:04:08;26.60;74.70
4896;DHT22;2463;49.948;8.472;2022-07-10T12:06:37;26.50;72.80
4896;DHT22;2463;49.948;8.472;2022-07-10T12:09:15;26.30;74.80
4896;DHT22;2463;49.948;8.472;2022-07-10T12:11:44;26.20;76.00
4896;DHT22;2463;49.948;8.472;2022-07-10T12:14:18;26.30;75.00
4896;DHT22;2463;49.948;8.472;2022-07-10T12:16:47;26.30;74.30
4896;DHT22;2463;49.948;8.472;2022-07-10T12:19:29;26.40;76.40
4896;DHT22;2463;49.948;8.472;2022-07-10T12:21:58;26.40;75.30
4896;DHT22;2463;49.948;8.472;2022-07-10T12:24:26;26.50;74.90
4896;DHT22;2463;49.948;8.472;2022-07-10T12:26:53;26.50;77.40
4896;DHT22;2463;49.948;8.472;2022-07-10T12:29:27;26.50;75.60
4896;DHT22;2463;49.948;8.472;2022-07-10T12:31:55;26.60;75.00
4896;DHT22;2463;49.948;8.472;2022-07-10T12:34:33;26.70;74.00
4896;DHT22;2463;49.948;8.472;2022-07-10T12:37:07;26.80;74.10
4896;DHT22;2463;49.948;8.472;2022-07-10T12:39:49;27.00;74.80
4896;DHT22;2463;49.948;8.472;2022-07-10T12:42:27;27.40;74.20
4896;DHT22;2463;49.948;8.472;2022-07-10T12:44:54;27.90;71.30
4896;DHT22;2463;49.948;8.472;2022-07-10T12:47:21;28.00;72.80
4896;DHT22;2463;49.948;8.472;2022-07-10T12:49:55;28.00;72.20
4896;DHT22;2463;49.948;8.472;2022-07-10T12:52:29;28.10;71.40
4896;DHT22;2463;49.948;8.472;2022-07-10T12:55:18;28.10;71.10
4896;DHT22;2463;49.948;8.472;2022-07-10T12:57:52;28.00;71.90
4896;DHT22;2463;49.948;8.472;2022-07-10T13:03:00;28.00;73.30
4896;DHT22;2463;49.948;8.472;2022-07-10T13:05:48;28.10;72.10
4896;DHT22;2463;49.948;8.472;2022-07-10T13:08:21;28.30;72.70
4896;DHT22;2463;49.948;8.472;2022-07-10T13:10:56;28.50;71.20
4896;DHT22;2463;49.948;8.472;2022-07-10T13:13:23;28.70;70.90
4896;DHT22;2463;49.948;8.472;2022-07-10T13:15:50;28.60;70.40
4896;DHT22;2463;49.948;8.472;2022-07-10T13:18:21;28.90;72.30
4896;DHT22;2463;49.948;8.472;2022-07-10T13:20:49;28.90;70.90
4896;DHT22;2463;49.948;8.472;2022-07-10T13:23:20;28.90;70.50
4896;DHT22;2463;49.948;8.472;2022-07-10T13:25:57;28.80;70.70
4896;DHT22;2463;49.948;8.472;2022-07-10T13:28:25;28.90;71.20
4896;DHT22;2463;49.948;8.472;2022-07-10T13:30:52;29.30;72.20
4896;DHT22;2463;49.948;8.472;2022-07-10T13:33:19;29.50;71.10
4896;DHT22;2463;49.948;8.472;2022-07-10T13:35:46;29.50;70.80
4896;DHT22;2463;49.948;8.472;2022-07-10T13:38:14;29.60;71.10
4896;DHT22;2463;49.948;8.472;2022-07-10T13:40:43;29.60;67.80
4896;DHT22;2463;49.948;8.472;2022-07-10T13:43:11;29.50;68.60
4896;DHT22;2463;49.948;8.472;2022-07-10T13:45:39;29.40;71.00
4896;DHT22;2463;49.948;8.472;2022-07-10T13:48:10;29.40;68.40
4896;DHT22;2463;49.948;8.472;2022-07-10T13:50:38;29.10;67.10
4896;DHT22;2463;49.948;8.472;2022-07-10T13:53:05;28.90;68.80
4896;DHT22;2463;49.948;8.472;2022-07-10T13:55:33;28.60;68.10
4896;DHT22;2463;49.948;8.472;2022-07-10T13:58:00;28.40;68.20
4896;DHT22;2463;49.948;8.472;2022-07-10T14:00:27;28.20;68.30
4896;DHT22;2463;49.948;8.472;2022-07-10T14:02:54;27.90;69.60
4896;DHT22;2463;49.948;8.472;2022-07-10T14:05:23;27.60;70.10
4896;DHT22;2463;49.948;8.472;2022-07-10T14:07:50;27.30;70.60
4896;DHT22;2463;49.948;8.472;2022-07-10T14:10:17;27.10;71.10
4896;DHT22;2463;49.948;8.472;2022-07-10T14:12:44;26.80;72.50
4896;DHT22;2463;49.948;8.472;2022-07-10T14:15:11;26.80;72.90
4896;DHT22;2463;49.948;8.472;2022-07-10T14:17:37;26.80;74.10
4896;DHT22;2463;49.948;8.472;2022-07-10T14:20:05;26.80;74.60
4896;DHT22;2463;49.948;8.472;2022-07-10T14:22:31;26.70;74.10
4896;DHT22;2463;49.948;8.472;2022-07-10T14:24:58;26.70;73.90
4896;DHT22;2463;49.948;8.472;2022-07-10T14:27:27;26.80;75.00
4896;DHT22;2463;49.948;8.472;2022-07-10T14:29:55;26.80;73.50
4896;DHT22;2463;49.948;8.472;2022-07-10T14:32:22;26.80;74.20
4896;DHT22;2463;49.948;8.472;2022-07-10T14:34:49;26.80;74.60
4896;DHT22;2463;49.948;8.472;2022-07-10T14:37:15;26.80;74.80
4896;DHT22;2463;49.948;8.472;2022-07-10T14:39:42;26.80;73.90
4896;DHT22;2463;49.948;8.472;2022-07-10T14:42:09;26.80;75.00
4896;DHT22;2463;49.948;8.472;2022-07-10T14:44:36;26.70;75.40
4896;DHT22;2463;49.948;8.472;2022-07-10T14:47:03;26.70;75.10
4896;DHT22;2463;49.948;8.472;2022-07-10T14:49:30;26.60;75.30
4896;DHT22;2463;49.948;8.472;2022-07-10T14:51:57;26.50;75.50
4896;DHT22;2463;49.948;8.472;2022-07-10T14:54:24;26.40;76.10
4896;DHT22;2463;49.948;8.472;2022-07-10T14:56:51;26.40;77.50
4896;DHT22;2463;49.948;8.472;2022-07-10T14:59:17;26.20;77.80
4896;DHT22;2463;49.948;8.472;2022-07-10T15:01:44;26.10;77.10
4896;DHT22;2463;49.948;8.472;2022-07-10T15:04:11;26.10;77.90
4896;DHT22;2463;49.948;8.472;2022-07-10T15:06:38;26.10;80.10
4896;DHT22;2463;49.948;8.472;2022-07-10T15:09:04;26.20;79.60
4896;DHT22;2463;49.948;8.472;2022-07-10T15:11:31;26.20;79.40
4896;DHT22;2463;49.948;8.472;2022-07-10T15:14:00;26.10;79.60
4896;DHT22;2463;49.948;8.472;2022-07-10T15:16:28;26.10;79.10
4896;DHT22;2463;49.948;8.472;2022-07-10T15:18:55;26.10;78.60
4896;DHT22;2463;49.948;8.472;2022-07-10T15:21:22;25.90;78.90
4896;DHT22;2463;49.948;8.472;2022-07-10T15:23:49;26.00;80.80
4896;DHT22;2463;49.948;8.472;2022-07-10T15:26:16;26.00;81.00
4896;DHT22;2463;49.948;8.472;2022-07-10T15:28:44;26.00;80.70
4896;DHT22;2463;49.948;8.472;2022-07-10T15:31:10;26.00;82.10
4896;DHT22;2463;49.948;8.472;2022-07-10T15:33:38;26.20;82.20
4896;DHT22;2463;49.948;8.472;2022-07-10T15:36:11;26.40;81.40
4896;DHT22;2463;49.948;8.472;2022-07-10T15:38:38;26.50;79.90
4896;DHT22;2463;49.948;8.472;2022-07-10T15:41:06;26.50;80.70
4896;DHT22;2463;49.948;8.472;2022-07-10T15:43:33;26.40;79.40
4896;DHT22;2463;49.948;8.472;2022-07-10T15:46:00;26.50;80.20
4896;DHT22;2463;49.948;8.472;2022-07-10T15:48:27;26.40;79.50
4896;DHT22;2463;49.948;8.472;2022-07-10T15:50:53;26.30;79.00
4896;DHT22;2463;49.948;8.472;2022-07-10T15:53:21;26.20;81.10
4896;DHT22;2463;49.948;8.472;2022-07-10T15:55:48;26.20;81.30
4896;DHT22;2463;49.948;8.472;2022-07-10T15:58:14;26.30;80.20
4896;DHT22;2463;49.948;8.472;2022-07-10T16:00:41;26.30;80.90
4896;DHT22;2463;49.948;8.472;2022-07-10T16:03:08;26.40;82.10
4896;DHT22;2463;49.948;8.472;2022-07-10T16:05:35;26.40;80.90
4896;DHT22;2463;49.948;8.472;2022-07-10T16:08:01;26.20;79.90
4896;DHT22;2463;49.948;8.472;2022-07-10T16:10:28;26.10;82.20
4896;DHT22;2463;49.948;8.472;2022-07-10T16:12:55;26.00;81.00
4896;DHT22;2463;49.948;8.472;2022-07-10T16:15:22;25.90;80.40
4896;DHT22;2463;49.948;8.472;2022-07-10T16:17:48;25.80;80.70
4896;DHT22;2463;49.948;8.472;2022-07-10T16:20:15;25.70;81.90
4896;DHT22;2463;49.948;8.472;2022-07-10T16:22:42;25.60;81.70
4896;DHT22;2463;49.948;8.472;2022-07-10T16:25:09;25.50;82.10
4896;DHT22;2463;49.948;8.472;2022-07-10T16:27:54;25.40;82.90
4896;DHT22;2463;49.948;8.472;2022-07-10T16:30:21;25.40;84.90
4896;DHT22;2463;49.948;8.472;2022-07-10T16:32:48;25.30;83.30
4896;DHT22;2463;49.948;8.472;2022-07-10T16:35:15;25.30;83.80
4896;DHT22;2463;49.948;8.472;2022-07-10T16:37:41;25.30;84.70
4896;DHT22;2463;49.948;8.472;2022-07-10T16:40:09;25.20;83.30
4896;DHT22;2463;49.948;8.472;2022-07-10T16:42:35;25.00;83.50